Lasker, North Carolina
Current Conditions -  °F | °C
As of 8:35 PM on Monday 24 Nov 2014 (Local Time) from KIXA Reporting Station
Scattered Clouds Scattered Clouds  
Wind Chill: 64°   Ceiling: Unl
Heat Index: 64°   Visibility: 10mi
Dew Point: 61°   Wind: 14mph
Humidity: 88%   Direction: 210°SSW
Pressure: 29.89"   Gusts: 18mph
Location:  36.3739°N, 77.4777°W
Report Text: KIXA 250135Z AUTO 21012G16KT 10SM SCT110 18/16 A2989 RMK AO2
Loading
Personal Weather Stations






























Interactive Weather Map New forecast layout! Learn more

10-Day Weather Forecast

Advertisements
Track Severe Weather on mobile